createdAt,value
2023-04-07T00:00:30.244Z,82.10
2023-04-07T00:01:30.133Z,82.73
2023-04-07T00:02:29.990Z,82.21
2023-04-07T00:03:30.041Z,82.87
2023-04-07T00:04:30.243Z,82.97
2023-04-07T00:05:29.945Z,83.07
2023-04-07T00:06:29.897Z,83.28
2023-04-07T00:07:29.929Z,83.49
2023-04-07T00:08:29.901Z,83.70
2023-04-07T00:09:29.860Z,83.90
2023-04-07T00:10:29.865Z,83.59
2023-04-07T00:11:29.881Z,83.70
2023-04-07T00:12:29.832Z,83.28
2023-04-07T00:13:30.824Z,84.00
2023-04-07T00:14:29.842Z,84.05
2023-04-07T00:15:29.799Z,84.11
2023-04-07T00:16:29.768Z,84.25
2023-04-07T00:17:29.941Z,84.56
2023-04-07T00:18:29.802Z,84.25
2023-04-07T00:19:29.732Z,84.31
2023-04-07T00:20:29.760Z,83.90
2023-04-07T00:21:29.842Z,83.49
2023-04-07T00:22:29.704Z,83.84
2023-04-07T00:23:29.841Z,83.42
2023-04-07T00:24:34.222Z,83.32
2023-04-07T00:25:29.728Z,82.80
2023-04-07T00:26:29.685Z,83.73
2023-04-07T00:27:29.636Z,83.53
2023-04-07T00:28:29.740Z,82.80
2023-04-07T00:29:29.628Z,82.90
2023-04-07T00:30:29.722Z,83.11
2023-04-07T00:31:29.627Z,83.32
2023-04-07T00:32:29.760Z,82.70
2023-04-07T00:33:29.816Z,82.70
2023-04-07T00:34:29.584Z,82.70
2023-04-07T00:35:29.599Z,82.39
2023-04-07T00:36:29.507Z,82.29
2023-04-07T00:37:29.610Z,81.67
2023-04-07T00:38:29.702Z,81.67
2023-04-07T00:39:29.527Z,81.05
2023-04-07T00:40:29.688Z,81.25
2023-04-07T00:41:29.507Z,81.67
2023-04-07T00:42:29.497Z,81.46
2023-04-07T00:43:29.449Z,81.15
2023-04-07T00:44:29.406Z,81.35
2023-04-07T00:45:29.500Z,81.05
2023-04-07T00:46:29.454Z,81.35
2023-04-07T00:47:29.467Z,81.05
2023-04-07T00:48:29.357Z,80.74
2023-04-07T00:49:29.522Z,80.32
2023-04-07T00:50:29.366Z,80.53
2023-04-07T00:51:29.375Z,80.63
2023-04-07T00:52:29.319Z,80.11
2023-04-07T00:53:29.573Z,79.80
2023-04-07T00:54:29.290Z,79.97
2023-04-07T00:55:29.329Z,80.08
2023-04-07T00:56:29.254Z,79.97
2023-04-07T00:57:29.385Z,80.29
2023-04-07T00:58:29.434Z,80.29
2023-04-07T00:59:29.248Z,80.08
2023-04-07T01:00:29.236Z,79.97
2023-04-07T01:01:29.328Z,79.97
2023-04-07T01:02:29.507Z,79.87
2023-04-07T01:03:29.652Z,79.56
2023-04-07T01:04:29.289Z,79.77
2023-04-07T01:05:29.260Z,79.77
2023-04-07T01:06:29.172Z,79.56
2023-04-07T01:07:29.234Z,79.15
2023-04-07T01:08:29.210Z,79.25
2023-04-07T01:09:29.099Z,78.94
2023-04-07T01:10:29.120Z,79.25
2023-04-07T01:11:29.115Z,78.11
2023-04-07T01:12:29.065Z,78.42
2023-04-07T01:13:29.143Z,78.32
2023-04-07T01:14:29.248Z,78.42
2023-04-07T01:15:29.008Z,78.28
2023-04-07T01:16:29.167Z,78.28
2023-04-07T01:17:29.045Z,78.18
2023-04-07T01:18:29.084Z,78.28
2023-04-07T01:19:29.070Z,78.18
2023-04-07T01:20:28.969Z,78.18
2023-04-07T01:21:29.025Z,78.18
2023-04-07T01:22:28.943Z,78.18
2023-04-07T01:23:29.022Z,78.28
2023-04-07T01:24:28.956Z,78.39
2023-04-07T01:25:28.891Z,77.98
2023-04-07T01:26:28.931Z,78.08
2023-04-07T01:27:28.839Z,77.98
2023-04-07T01:28:28.890Z,77.98
2023-04-07T01:29:28.835Z,78.18
2023-04-07T01:30:28.895Z,78.08
2023-04-07T01:31:28.930Z,77.87
2023-04-07T01:32:28.889Z,77.98
2023-04-07T01:33:28.766Z,77.77
2023-04-07T01:34:29.003Z,78.18
2023-04-07T01:35:28.929Z,78.28
2023-04-07T01:36:28.798Z,78.59
2023-04-07T01:37:28.727Z,78.70
2023-04-07T01:38:28.947Z,78.91
2023-04-07T01:39:28.705Z,78.59
2023-04-07T01:40:28.813Z,78.59
2023-04-07T01:41:28.702Z,78.80
2023-04-07T01:42:28.737Z,79.42
2023-04-07T01:43:28.645Z,79.22
2023-04-07T01:44:28.801Z,79.11
2023-04-07T01:45:28.630Z,79.11
2023-04-07T01:46:28.665Z,78.91
2023-04-07T01:47:28.690Z,79.11
2023-04-07T01:48:28.745Z,79.73
2023-04-07T01:49:28.660Z,79.73
2023-04-07T01:50:28.736Z,80.15
2023-04-07T01:51:28.560Z,80.46
2023-04-07T01:52:28.609Z,80.25
2023-04-07T01:53:28.551Z,80.56
2023-04-07T01:54:28.579Z,80.56
2023-04-07T01:55:28.568Z,80.76
2023-04-07T01:56:28.512Z,80.97
2023-04-07T01:57:28.564Z,80.76
2023-04-07T01:58:28.474Z,80.46
2023-04-07T01:59:28.568Z,80.56
2023-04-07T02:00:28.542Z,80.56
2023-04-07T02:01:28.479Z,80.56
2023-04-07T02:02:28.627Z,80.66
2023-04-07T02:03:28.469Z,80.87
2023-04-07T02:04:28.428Z,80.76
2023-04-07T02:05:28.423Z,81.18
2023-04-07T02:06:28.394Z,81.07
2023-04-07T02:07:28.434Z,81.38
2023-04-07T02:08:29.561Z,81.49
2023-04-07T02:09:28.429Z,81.49
2023-04-07T02:10:28.411Z,81.80
2023-04-07T02:11:28.302Z,81.90
2023-04-07T02:12:28.375Z,81.80
2023-04-07T02:13:28.269Z,81.90
2023-04-07T02:14:28.433Z,82.00
2023-04-07T02:15:28.254Z,82.31
2023-04-07T02:16:28.396Z,82.93
2023-04-07T02:17:28.238Z,83.14
2023-04-07T02:18:28.341Z,82.93
2023-04-07T02:19:28.229Z,82.93
2023-04-07T02:20:28.278Z,82.83
2023-04-07T02:21:28.210Z,83.04
2023-04-07T02:22:28.307Z,83.14
2023-04-07T02:23:28.168Z,83.34
2023-04-07T02:24:28.321Z,83.14
2023-04-07T02:25:28.162Z,83.34
2023-04-07T02:26:28.277Z,83.45
2023-04-07T02:27:28.122Z,83.55
2023-04-07T02:28:28.133Z,83.04
2023-04-07T02:29:28.064Z,83.04
2023-04-07T02:30:28.198Z,82.73
2023-04-07T02:31:28.124Z,82.93
2023-04-07T02:32:28.162Z,82.62
2023-04-07T02:33:28.020Z,82.62
2023-04-07T02:34:28.135Z,83.14
2023-04-07T02:35:27.992Z,83.34
2023-04-07T02:36:28.134Z,83.34
2023-04-07T02:37:27.972Z,83.65
2023-04-07T02:38:28.103Z,84.07
2023-04-07T02:39:27.967Z,84.38
2023-04-07T02:40:27.993Z,84.59
2023-04-07T02:41:27.943Z,84.28
2023-04-07T02:42:28.022Z,84.59
2023-04-07T02:43:27.894Z,84.59
2023-04-07T02:44:27.976Z,84.28
2023-04-07T02:45:27.866Z,84.28
2023-04-07T02:46:28.048Z,84.31
2023-04-07T02:47:27.896Z,84.59
2023-04-07T02:48:27.993Z,84.79
2023-04-07T02:49:27.845Z,85.31
2023-04-07T02:50:27.969Z,84.63
2023-04-07T02:51:27.831Z,84.42
2023-04-07T02:52:27.837Z,84.79
2023-04-07T02:53:27.825Z,84.59
2023-04-07T02:54:27.778Z,84.59
2023-04-07T02:55:27.894Z,84.89
2023-04-07T02:56:27.762Z,84.79
2023-04-07T02:57:27.751Z,85.31
2023-04-07T02:58:27.747Z,85.52
2023-04-07T02:59:27.771Z,85.52
2023-04-07T03:00:27.766Z,85.55
2023-04-07T03:01:27.765Z,85.35
2023-04-07T03:02:27.779Z,84.94
2023-04-07T03:03:27.896Z,84.89
2023-04-07T03:04:27.717Z,85.24
2023-04-07T03:05:27.821Z,85.35
2023-04-07T03:06:27.634Z,85.24
2023-04-07T03:07:27.613Z,85.66
2023-04-07T03:08:27.649Z,85.97
2023-04-07T03:09:27.669Z,85.86
2023-04-07T03:10:27.573Z,85.76
2023-04-07T03:11:27.718Z,85.97
2023-04-07T03:12:27.552Z,86.28
2023-04-07T03:13:27.609Z,86.18
2023-04-07T03:14:27.529Z,86.28
2023-04-07T03:15:27.633Z,86.07
2023-04-07T03:16:27.499Z,86.11
2023-04-07T03:17:27.546Z,86.32
2023-04-07T03:18:27.445Z,86.38
2023-04-07T03:19:27.575Z,86.38
2023-04-07T03:20:27.434Z,86.42
2023-04-07T03:21:27.458Z,86.21
2023-04-07T03:22:27.465Z,85.91
2023-04-07T03:23:27.405Z,85.60
2023-04-07T03:24:27.595Z,86.18
2023-04-07T03:25:27.385Z,86.52
2023-04-07T03:26:27.422Z,86.01
2023-04-07T03:27:27.400Z,85.91
2023-04-07T03:28:27.373Z,85.80
2023-04-07T03:29:27.535Z,85.80
2023-04-07T03:30:27.316Z,85.91
2023-04-07T03:31:27.498Z,85.39
2023-04-07T03:32:27.475Z,85.70
2023-04-07T03:33:27.305Z,85.60
2023-04-07T03:34:27.327Z,85.45
2023-04-07T03:35:27.282Z,85.39
2023-04-07T03:36:27.329Z,85.08
2023-04-07T03:37:27.266Z,85.35
2023-04-07T03:38:27.310Z,85.08
2023-04-07T03:39:27.211Z,85.08
2023-04-07T03:40:27.379Z,85.49
2023-04-07T03:41:27.203Z,85.70
2023-04-07T03:42:27.186Z,86.11
2023-04-07T03:43:27.178Z,86.42
2023-04-07T03:44:27.185Z,86.63
2023-04-07T03:45:27.173Z,86.63
2023-04-07T03:46:27.371Z,86.73
2023-04-07T03:47:27.132Z,87.08
2023-04-07T03:48:28.730Z,86.57
2023-04-07T03:49:27.107Z,85.94
2023-04-07T03:50:27.140Z,86.21
2023-04-07T03:51:27.253Z,86.32
2023-04-07T03:52:27.144Z,86.63
2023-04-07T03:53:27.081Z,86.83
2023-04-07T03:54:27.127Z,86.94
2023-04-07T03:55:27.026Z,87.15
2023-04-07T03:56:28.781Z,87.25
2023-04-07T03:57:26.994Z,87.35
2023-04-07T03:58:27.099Z,87.60
2023-04-07T03:59:26.995Z,88.01
2023-04-07T04:00:27.082Z,87.81
2023-04-07T04:01:26.946Z,87.60
2023-04-07T04:02:27.072Z,87.70
2023-04-07T04:03:26.994Z,87.39
2023-04-07T04:04:26.940Z,87.29
2023-04-07T04:05:26.907Z,87.29
2023-04-07T04:06:26.912Z,87.60
2023-04-07T04:07:26.938Z,87.49
2023-04-07T04:08:26.868Z,87.60
2023-04-07T04:09:26.838Z,87.29
2023-04-07T04:10:26.865Z,87.29
2023-04-07T04:11:26.810Z,86.67
2023-04-07T04:12:26.932Z,86.57
2023-04-07T04:13:26.819Z,86.46
2023-04-07T04:14:26.762Z,86.15
2023-04-07T04:15:26.810Z,86.46
2023-04-07T04:16:26.791Z,85.84
2023-04-07T04:17:26.779Z,85.70
2023-04-07T04:18:26.825Z,85.60
2023-04-07T04:19:26.710Z,85.80
2023-04-07T04:20:26.731Z,86.11
2023-04-07T04:21:26.686Z,86.11
2023-04-07T04:22:26.787Z,85.60
2023-04-07T04:23:26.672Z,86.21
2023-04-07T04:24:26.649Z,86.42
2023-04-07T04:25:26.640Z,86.46
2023-04-07T04:26:26.691Z,86.46
2023-04-07T04:27:26.618Z,86.57
2023-04-07T04:28:26.657Z,86.46
2023-04-07T04:29:26.587Z,86.25
2023-04-07T04:30:26.724Z,85.94
2023-04-07T04:31:26.631Z,85.94
2023-04-07T04:32:26.688Z,85.42
2023-04-07T04:33:26.551Z,85.84
2023-04-07T04:34:26.657Z,85.84
2023-04-07T04:35:26.518Z,85.42
2023-04-07T04:36:26.545Z,85.22
2023-04-07T04:37:26.476Z,85.32
2023-04-07T04:38:26.509Z,85.22
2023-04-07T04:39:26.485Z,84.97
2023-04-07T04:40:26.494Z,84.77
2023-04-07T04:41:26.445Z,84.77
2023-04-07T04:42:26.490Z,85.28
2023-04-07T04:43:26.436Z,85.80
2023-04-07T04:44:26.641Z,86.32
2023-04-07T04:45:26.442Z,86.46
2023-04-07T04:46:26.415Z,86.25
2023-04-07T04:47:26.401Z,86.46
2023-04-07T04:48:26.404Z,86.57
2023-04-07T04:49:26.344Z,86.77
2023-04-07T04:50:26.426Z,86.98
2023-04-07T04:51:26.339Z,87.39
2023-04-07T04:52:26.309Z,87.70
2023-04-07T04:53:26.330Z,87.70
2023-04-07T04:54:26.344Z,87.81
2023-04-07T04:55:26.294Z,88.01
2023-04-07T04:56:26.338Z,88.01
2023-04-07T04:57:26.254Z,87.91
2023-04-07T04:58:26.286Z,87.74
2023-04-07T04:59:26.281Z,87.74
2023-04-07T05:00:26.181Z,88.01
2023-04-07T05:01:26.385Z,88.26
2023-04-07T05:02:26.352Z,88.01
2023-04-07T05:03:26.454Z,87.85
2023-04-07T05:04:26.246Z,87.74
2023-04-07T05:05:26.249Z,87.70
2023-04-07T05:06:26.104Z,87.81
2023-04-07T05:07:26.175Z,87.49
2023-04-07T05:08:26.079Z,86.98
2023-04-07T05:09:26.155Z,86.98
2023-04-07T05:10:26.043Z,86.98
2023-04-07T05:11:26.157Z,86.98
2023-04-07T05:12:26.038Z,86.77
2023-04-07T05:13:26.130Z,86.57
2023-04-07T05:14:26.018Z,86.77
2023-04-07T05:15:26.104Z,86.98
2023-04-07T05:16:26.009Z,87.08
2023-04-07T05:17:26.187Z,87.29
2023-04-07T05:18:25.944Z,87.29
2023-04-07T05:19:26.071Z,87.08
2023-04-07T05:20:25.928Z,87.18
2023-04-07T05:21:26.019Z,87.39
2023-04-07T05:22:25.936Z,87.49
2023-04-07T05:23:32.197Z,87.08
2023-04-07T05:24:25.926Z,87.39
2023-04-07T05:25:26.113Z,87.29
2023-04-07T05:26:25.880Z,86.88
2023-04-07T05:27:25.963Z,86.57
2023-04-07T05:28:25.853Z,86.67
2023-04-07T05:29:25.998Z,86.36
2023-04-07T05:30:25.976Z,86.46
2023-04-07T05:31:25.838Z,85.53
2023-04-07T05:32:25.991Z,85.39
2023-04-07T05:33:25.821Z,84.87
2023-04-07T05:34:25.850Z,85.28
2023-04-07T05:35:25.787Z,85.49
2023-04-07T05:36:25.888Z,85.28
2023-04-07T05:37:25.737Z,85.18
2023-04-07T05:38:25.863Z,85.08
2023-04-07T05:39:25.723Z,85.18
2023-04-07T05:40:25.844Z,85.28
2023-04-07T05:41:25.703Z,85.18
2023-04-07T05:42:25.809Z,86.01
2023-04-07T05:43:25.699Z,86.18
2023-04-07T05:44:25.692Z,85.66
2023-04-07T05:45:25.759Z,84.94
2023-04-07T05:46:25.608Z,85.04
2023-04-07T05:47:25.709Z,84.63
2023-04-07T05:48:25.774Z,84.48
2023-04-07T05:49:25.674Z,84.79
2023-04-07T05:50:25.781Z,84.69
2023-04-07T05:51:25.564Z,84.79
2023-04-07T05:52:25.786Z,84.89
2023-04-07T05:53:25.553Z,85.41
2023-04-07T05:54:25.578Z,85.62
2023-04-07T05:55:25.608Z,85.66
2023-04-07T05:56:25.542Z,85.45
2023-04-07T05:57:25.491Z,85.60
2023-04-07T05:58:25.676Z,85.70
2023-04-07T05:59:25.519Z,85.49
2023-04-07T06:00:25.851Z,86.01
2023-04-07T06:01:26.953Z,86.11
2023-04-07T06:02:25.555Z,85.97
2023-04-07T06:03:25.452Z,85.76
2023-04-07T06:04:25.396Z,85.97
2023-04-07T06:05:25.527Z,86.07
2023-04-07T06:06:25.549Z,86.18
2023-04-07T06:07:25.388Z,86.24
2023-04-07T06:08:25.544Z,86.24
2023-04-07T06:09:25.372Z,86.65
2023-04-07T06:10:25.373Z,86.65
2023-04-07T06:11:25.424Z,86.76
2023-04-07T06:12:25.296Z,87.48
2023-04-07T06:13:25.367Z,87.52
2023-04-07T06:14:25.266Z,87.31
2023-04-07T06:15:25.285Z,86.90
2023-04-07T06:16:25.287Z,86.90
2023-04-07T06:17:25.293Z,87.00
2023-04-07T06:18:25.303Z,86.59
2023-04-07T06:19:25.214Z,86.28
2023-04-07T06:20:25.197Z,86.24
2023-04-07T06:21:25.246Z,85.83
2023-04-07T06:22:25.252Z,85.52
2023-04-07T06:23:25.194Z,85.10
2023-04-07T06:24:25.250Z,85.00
2023-04-07T06:25:25.208Z,84.79
2023-04-07T06:26:25.143Z,85.35
2023-04-07T06:27:25.219Z,85.62
2023-04-07T06:28:25.213Z,85.00
2023-04-07T06:29:25.129Z,84.69
2023-04-07T06:30:25.171Z,84.89
2023-04-07T06:31:25.098Z,84.59
2023-04-07T06:32:25.189Z,84.34
2023-04-07T06:33:25.265Z,84.13
2023-04-07T06:34:24.994Z,83.51
2023-04-07T06:35:25.101Z,82.96
2023-04-07T06:36:25.019Z,82.65
2023-04-07T06:37:25.002Z,81.68
2023-04-07T06:38:25.068Z,81.17
2023-04-07T06:39:24.976Z,81.07
2023-04-07T06:40:25.024Z,80.76
2023-04-07T06:41:24.973Z,80.65
2023-04-07T06:42:25.066Z,80.34
2023-04-07T06:43:24.928Z,80.55
2023-04-07T06:44:25.168Z,80.51
2023-04-07T06:45:24.879Z,81.23
2023-04-07T06:46:24.896Z,80.72
2023-04-07T06:47:24.885Z,80.62
2023-04-07T06:48:24.956Z,80.62
2023-04-07T06:49:24.830Z,80.93
2023-04-07T06:50:24.897Z,80.93
2023-04-07T06:51:24.814Z,80.58
2023-04-07T06:52:24.965Z,81.40
2023-04-07T06:53:24.782Z,83.47
2023-04-07T06:54:27.412Z,83.67
2023-04-07T06:55:24.773Z,83.47
2023-04-07T06:56:24.831Z,82.74
2023-04-07T06:57:24.736Z,82.84
2023-04-07T06:58:24.736Z,82.95
2023-04-07T06:59:24.756Z,82.23
2023-04-07T07:00:24.891Z,82.43
2023-04-07T07:01:24.749Z,82.74
2023-04-07T07:02:24.792Z,82.02
2023-04-07T07:03:24.812Z,82.06
2023-04-07T07:04:24.880Z,81.75
2023-04-07T07:05:24.671Z,81.54
2023-04-07T07:06:24.727Z,81.65
2023-04-07T07:07:24.705Z,81.96
2023-04-07T07:08:24.718Z,82.37
2023-04-07T07:09:24.599Z,82.43
2023-04-07T07:10:25.224Z,82.74
2023-04-07T07:11:24.594Z,82.54
2023-04-07T07:12:24.772Z,82.43
2023-04-07T07:13:24.590Z,82.84
2023-04-07T07:14:24.665Z,83.15
2023-04-07T07:15:24.576Z,82.84
2023-04-07T07:16:24.569Z,82.74
2023-04-07T07:17:24.634Z,82.54
2023-04-07T07:18:24.550Z,81.92
2023-04-07T07:19:24.607Z,81.47
2023-04-07T07:20:24.429Z,81.67
2023-04-07T07:21:24.648Z,81.47
2023-04-07T07:22:24.425Z,80.54
2023-04-07T07:23:24.460Z,80.13
2023-04-07T07:24:24.364Z,80.44
2023-04-07T07:25:24.465Z,80.65
2023-04-07T07:26:24.397Z,80.54
2023-04-07T07:27:24.379Z,80.61
2023-04-07T07:28:24.376Z,80.91
2023-04-07T07:29:24.346Z,80.71
2023-04-07T07:30:24.321Z,81.02
2023-04-07T07:31:24.394Z,80.71
2023-04-07T07:32:24.366Z,80.51
2023-04-07T07:33:24.306Z,80.05
2023-04-07T07:34:24.306Z,79.64
2023-04-07T07:35:24.375Z,79.33
2023-04-07T07:36:24.299Z,79.85
2023-04-07T07:37:24.378Z,79.23
2023-04-07T07:38:24.209Z,79.64
2023-04-07T07:39:24.248Z,79.44
2023-04-07T07:40:24.185Z,79.64
2023-04-07T07:41:24.246Z,79.75
2023-04-07T07:42:24.172Z,79.54
2023-04-07T07:43:24.277Z,78.92
2023-04-07T07:44:24.139Z,78.92
2023-04-07T07:45:24.247Z,79.23
2023-04-07T07:46:24.212Z,79.33
2023-04-07T07:47:24.188Z,79.95
2023-04-07T07:48:24.220Z,79.61
2023-04-07T07:49:24.059Z,79.30
2023-04-07T07:50:24.242Z,78.99
2023-04-07T07:51:24.083Z,78.99
2023-04-07T07:52:24.190Z,78.13
2023-04-07T07:53:24.221Z,77.92
2023-04-07T07:54:24.016Z,77.72
2023-04-07T07:55:24.013Z,77.00
2023-04-07T07:56:24.023Z,76.45
2023-04-07T07:57:24.064Z,75.52
2023-04-07T07:58:24.083Z,75.32
2023-04-07T07:59:23.970Z,74.67
2023-04-07T08:00:24.147Z,73.95
2023-04-07T08:01:23.927Z,72.92
2023-04-07T08:02:24.013Z,73.13
2023-04-07T08:03:23.987Z,72.58
2023-04-07T08:04:23.977Z,73.19
2023-04-07T08:05:23.931Z,73.16
2023-04-07T08:06:23.861Z,72.20
2023-04-07T08:07:23.890Z,69.57
2023-04-07T08:08:23.840Z,70.50
2023-04-07T08:09:23.929Z,71.08
2023-04-07T08:10:23.862Z,69.64
2023-04-07T08:11:23.828Z,70.26
2023-04-07T08:12:23.795Z,70.67
2023-04-07T08:13:23.915Z,70.46
2023-04-07T08:14:23.753Z,70.32
2023-04-07T08:15:23.895Z,69.71
2023-04-07T08:16:23.776Z,69.68
2023-04-07T08:17:23.902Z,69.34
2023-04-07T08:18:23.719Z,68.52
2023-04-07T08:19:23.782Z,68.93
2023-04-07T08:20:23.767Z,68.08
2023-04-07T08:21:23.705Z,67.77
2023-04-07T08:22:23.665Z,68.18
2023-04-07T08:23:23.715Z,67.43
2023-04-07T08:24:23.727Z,68.22
2023-04-07T08:25:23.607Z,67.40
2023-04-07T08:26:23.667Z,67.71
2023-04-07T08:27:23.608Z,68.01
2023-04-07T08:28:23.632Z,67.98
2023-04-07T08:29:23.556Z,66.66
2023-04-07T08:30:23.835Z,66.96
2023-04-07T08:31:23.584Z,67.27
2023-04-07T08:32:23.571Z,66.96
2023-04-07T08:33:23.482Z,64.71
2023-04-07T08:34:23.681Z,64.10
2023-04-07T08:35:23.485Z,63.10
2023-04-07T08:36:23.596Z,63.31
2023-04-07T08:37:23.550Z,62.80
2023-04-07T08:38:23.660Z,63.72
2023-04-07T08:39:23.587Z,64.03
2023-04-07T08:40:23.434Z,63.51
2023-04-07T08:41:23.416Z,61.98
2023-04-07T08:42:23.456Z,62.49
2023-04-07T08:43:23.406Z,64.13
2023-04-07T08:44:23.434Z,63.62
2023-04-07T08:45:23.359Z,64.43
2023-04-07T08:46:23.598Z,65.46
2023-04-07T08:47:23.412Z,64.33
2023-04-07T08:48:23.371Z,65.84
2023-04-07T08:49:23.342Z,67.27
2023-04-07T08:50:23.448Z,66.45
2023-04-07T08:51:23.278Z,67.16
2023-04-07T08:52:23.342Z,63.89
2023-04-07T08:53:23.287Z,64.81
2023-04-07T08:54:23.412Z,65.02
2023-04-07T08:55:23.205Z,64.68
2023-04-07T08:56:23.337Z,65.50
2023-04-07T08:57:23.188Z,65.19
2023-04-07T08:58:23.380Z,65.70
2023-04-07T08:59:23.162Z,64.89
2023-04-07T09:00:23.407Z,64.89
2023-04-07T09:01:23.176Z,65.50
2023-04-07T09:02:24.096Z,65.80
2023-04-07T09:03:23.274Z,65.80
2023-04-07T09:04:23.314Z,65.50
2023-04-07T09:05:23.178Z,65.40
2023-04-07T09:06:23.094Z,65.80
2023-04-07T09:07:23.202Z,65.06
2023-04-07T09:08:23.071Z,65.77
2023-04-07T09:09:23.227Z,64.34
2023-04-07T09:10:23.102Z,63.32
2023-04-07T09:11:23.049Z,63.83
2023-04-07T09:12:23.006Z,65.06
2023-04-07T09:13:23.033Z,64.75
2023-04-07T09:14:23.005Z,64.96
2023-04-07T09:15:23.097Z,64.62
2023-04-07T09:16:23.241Z,64.22
2023-04-07T09:17:23.063Z,64.49
2023-04-07T09:18:22.937Z,64.87
2023-04-07T09:19:23.064Z,64.87
2023-04-07T09:20:23.148Z,64.12
2023-04-07T09:21:23.051Z,63.41
2023-04-07T09:22:22.880Z,64.20
2023-04-07T09:23:22.911Z,63.24
2023-04-07T09:24:22.896Z,62.13
2023-04-07T09:25:22.976Z,58.87
2023-04-07T09:26:22.941Z,60.68
2023-04-07T09:27:22.898Z,61.99
2023-04-07T09:28:22.902Z,61.38
2023-04-07T09:29:22.963Z,58.44
2023-04-07T09:30:22.909Z,60.75
2023-04-07T09:31:22.912Z,61.25
2023-04-07T09:32:22.910Z,60.21
2023-04-07T09:33:22.755Z,59.30
2023-04-07T09:34:22.765Z,57.03
2023-04-07T09:35:22.779Z,59.47
2023-04-07T09:36:22.733Z,60.56
2023-04-07T09:37:22.792Z,60.86
2023-04-07T09:38:22.711Z,57.92
2023-04-07T09:39:22.715Z,59.21
2023-04-07T09:40:22.687Z,55.45
2023-04-07T09:41:22.833Z,54.94
2023-04-07T09:42:22.640Z,57.38
2023-04-07T09:43:23.100Z,58.06
2023-04-07T09:44:22.639Z,58.65
2023-04-07T09:45:33.085Z,57.73
2023-04-07T09:46:24.352Z,58.01
2023-04-07T09:47:22.645Z,57.78
2023-04-07T09:48:22.584Z,54.84
2023-04-07T09:49:22.636Z,55.55
2023-04-07T09:50:22.544Z,55.76
2023-04-07T09:51:22.740Z,56.57
2023-04-07T09:52:22.567Z,54.61
2023-04-07T09:53:22.581Z,56.10
2023-04-07T09:54:22.474Z,53.88
2023-04-07T09:55:22.510Z,52.64
2023-04-07T09:56:22.569Z,52.41
2023-04-07T09:57:22.459Z,48.95
2023-04-07T09:58:22.464Z,49.05
2023-04-07T09:59:22.478Z,47.51
2023-04-07T10:00:22.748Z,49.30
2023-04-07T10:01:22.483Z,49.38
2023-04-07T10:02:22.462Z,49.54
2023-04-07T10:03:22.479Z,47.90
2023-04-07T10:04:22.396Z,44.78
2023-04-07T10:05:22.384Z,48.99
2023-04-07T10:06:22.422Z,44.27
2023-04-07T10:07:22.349Z,45.22
2023-04-07T10:08:22.419Z,46.48
2023-04-07T10:09:22.299Z,45.86
2023-04-07T10:10:22.387Z,48.38
2023-04-07T10:11:22.258Z,50.18
2023-04-07T10:12:22.322Z,47.25
2023-04-07T10:13:22.249Z,46.03
2023-04-07T10:14:22.255Z,46.26
2023-04-07T10:15:22.210Z,44.97
2023-04-07T10:16:22.291Z,44.55
2023-04-07T10:17:22.231Z,42.10
2023-04-07T10:18:22.628Z,42.83
2023-04-07T10:19:22.156Z,41.60
2023-04-07T10:20:22.310Z,38.74
2023-04-07T10:21:22.122Z,39.38
2023-04-07T10:22:22.276Z,40.67
2023-04-07T10:23:22.098Z,41.65
2023-04-07T10:24:22.238Z,38.66
2023-04-07T10:25:22.118Z,39.64
2023-04-07T10:26:22.260Z,41.93
2023-04-07T10:27:22.049Z,41.21
2023-04-07T10:28:22.104Z,41.19
2023-04-07T10:29:22.051Z,40.27
2023-04-07T10:30:22.067Z,38.65
2023-04-07T10:31:22.118Z,37.53
2023-04-07T10:32:22.117Z,37.23
2023-04-07T10:33:21.968Z,36.75
2023-04-07T10:34:22.129Z,38.57
2023-04-07T10:35:22.025Z,38.99
2023-04-07T10:36:22.179Z,41.01
2023-04-07T10:37:22.151Z,38.10
2023-04-07T10:38:21.987Z,39.23
2023-04-07T10:39:21.906Z,39.69
2023-04-07T10:40:21.935Z,40.14
2023-04-07T10:41:21.920Z,42.66
2023-04-07T10:42:21.895Z,40.46
2023-04-07T10:43:22.554Z,42.46
2023-04-07T10:44:21.850Z,42.18
2023-04-07T10:45:21.949Z,40.46
2023-04-07T10:46:21.894Z,40.86
2023-04-07T10:47:22.008Z,41.37
2023-04-07T10:48:21.834Z,42.47
2023-04-07T10:49:21.820Z,42.47
2023-04-07T10:50:22.034Z,40.69
2023-04-07T10:51:21.839Z,43.60
2023-04-07T10:52:21.797Z,44.92
2023-04-07T10:53:21.749Z,44.93
2023-04-07T10:54:21.841Z,44.83
2023-04-07T10:55:21.688Z,44.43
2023-04-07T10:56:21.831Z,45.34
2023-04-07T10:57:21.684Z,45.24
2023-04-07T10:58:21.735Z,43.65
2023-04-07T10:59:21.648Z,44.17
2023-04-07T11:00:21.877Z,43.18
2023-04-07T11:01:21.643Z,43.80
2023-04-07T11:02:21.936Z,44.54
2023-04-07T11:03:21.769Z,46.15
2023-04-07T11:04:21.992Z,45.97
2023-04-07T11:05:21.560Z,45.47
2023-04-07T11:06:21.612Z,47.39
2023-04-07T11:07:21.546Z,47.41
2023-04-07T11:08:21.643Z,49.53
2023-04-07T11:09:21.565Z,47.81
2023-04-07T11:10:21.640Z,47.74
2023-04-07T11:11:21.502Z,48.67
2023-04-07T11:12:21.661Z,50.49
2023-04-07T11:13:21.623Z,52.54
2023-04-07T11:14:21.500Z,51.12
2023-04-07T11:15:21.503Z,51.50
2023-04-07T11:16:21.472Z,50.89
2023-04-07T11:17:21.458Z,51.90
2023-04-07T11:18:21.481Z,52.41
2023-04-07T11:19:21.422Z,51.70
2023-04-07T11:20:21.439Z,50.18
2023-04-07T11:21:21.459Z,50.49
2023-04-07T11:23:21.520Z,50.18
2023-04-07T11:24:21.436Z,49.17
2023-04-07T11:25:21.511Z,47.67
2023-04-07T11:26:21.353Z,47.88
2023-04-07T11:27:21.431Z,48.49
2023-04-07T11:28:21.426Z,49.19
2023-04-07T11:29:21.386Z,50.31
2023-04-07T11:30:21.475Z,50.54
2023-04-07T11:31:21.330Z,49.83
2023-04-07T11:32:22.989Z,52.99
2023-04-07T11:33:21.272Z,52.99
2023-04-07T11:34:21.255Z,52.69
2023-04-07T11:35:21.556Z,51.90
2023-04-07T11:36:21.200Z,52.92
2023-04-07T11:37:21.222Z,53.75
2023-04-07T11:38:21.260Z,53.55
2023-04-07T11:39:21.411Z,53.88
2023-04-07T11:40:21.699Z,54.39
2023-04-07T11:41:21.223Z,55.60
2023-04-07T11:42:21.116Z,55.22
2023-04-07T11:43:21.188Z,55.02
2023-04-07T11:44:21.064Z,55.25
2023-04-07T11:45:21.212Z,56.06
2023-04-07T11:46:21.110Z,55.27
2023-04-07T11:47:21.212Z,56.29
2023-04-07T11:48:21.059Z,56.12
2023-04-07T11:49:21.178Z,55.71
2023-04-07T11:50:21.061Z,55.71
2023-04-07T11:51:21.296Z,55.94
2023-04-07T11:52:21.006Z,56.55
2023-04-07T11:53:21.117Z,57.16
2023-04-07T11:54:20.955Z,57.36
2023-04-07T11:55:22.307Z,57.67
2023-04-07T11:56:20.926Z,58.17
2023-04-07T11:57:21.080Z,57.49
2023-04-07T11:58:20.922Z,58.10
2023-04-07T11:59:21.203Z,57.79
2023-04-07T12:00:20.873Z,58.40
2023-04-07T12:01:21.064Z,58.71
2023-04-07T12:02:20.974Z,58.92
2023-04-07T12:03:21.236Z,58.81
2023-04-07T12:04:21.079Z,58.71
2023-04-07T12:05:20.834Z,58.61
2023-04-07T12:06:21.000Z,59.55
2023-04-07T12:07:20.844Z,59.66
2023-04-07T12:08:20.921Z,60.68
2023-04-07T12:09:20.925Z,60.98
2023-04-07T12:10:20.737Z,62.30
2023-04-07T12:11:21.026Z,61.82
2023-04-07T12:12:20.750Z,61.11
2023-04-07T12:13:20.816Z,61.82
2023-04-07T12:14:20.807Z,62.84
2023-04-07T12:15:20.768Z,62.33
2023-04-07T12:16:20.874Z,62.94
2023-04-07T12:17:20.728Z,62.94
2023-04-07T12:18:20.777Z,63.76
2023-04-07T12:19:20.754Z,63.96
2023-04-07T12:20:21.008Z,63.96
2023-04-07T12:21:20.661Z,63.76
2023-04-07T12:22:20.666Z,64.57
2023-04-07T12:23:20.649Z,64.47
2023-04-07T12:24:20.677Z,64.26
2023-04-07T12:25:20.653Z,63.76
2023-04-07T12:26:22.954Z,63.35
2023-04-07T12:27:24.624Z,63.56
2023-04-07T12:28:20.695Z,63.45
2023-04-07T12:29:20.626Z,64.06
2023-04-07T12:30:20.535Z,63.04
2023-04-07T12:31:20.703Z,63.01
2023-04-07T12:32:20.595Z,62.92
2023-04-07T12:33:20.567Z,62.81
2023-04-07T12:34:20.438Z,63.62
2023-04-07T12:35:20.606Z,63.42
2023-04-07T12:36:20.456Z,62.37
2023-04-07T12:37:20.846Z,62.68
2023-04-07T12:38:21.250Z,62.88
2023-04-07T12:39:20.590Z,63.42
2023-04-07T12:40:20.415Z,63.53
2023-04-07T12:41:20.573Z,63.73
2023-04-07T12:42:20.360Z,64.23
2023-04-07T12:43:20.578Z,63.65
2023-04-07T12:44:20.313Z,63.86
2023-04-07T12:45:20.528Z,63.56
2023-04-07T12:46:20.368Z,63.86
2023-04-07T12:47:20.747Z,65.42
2023-04-07T12:48:20.280Z,64.81
2023-04-07T12:49:20.432Z,64.20
2023-04-07T12:50:20.373Z,63.18
2023-04-07T12:51:20.329Z,64.70
2023-04-07T12:52:20.454Z,64.90
2023-04-07T12:53:20.216Z,64.70